Flight Track Log - Related Links

Times and Time Zones

All times are in EDT time to prevent confusion due to time zone crossing. See the SWA1969 flight status page for this flight to view local times or setup timezone preferences in your user account.

Time Position Orientation Groundspeed Altitude Reporting Facility
EDT Latitude Longitude Course Direction KTS km/h feet Rate Location/Type
Wed 11:54:20 41.8000 -87.6833 14° North 190 352 2,900  Level Chicago TRACON
Wed 11:55:20 41.8167 -87.6000 75° East 255 472 4,000 647 Climbing Chicago TRACON
Wed 11:56:02 41.8575 -87.5644 33° Northeast 246 455 4,000  Level Chicago Center
Wed 11:57:04 41.9294 -87.5542 North 253 468 4,000 1,548 Level Chicago Center
Wed 11:58:06 42.0006 -87.5717 350° North 271 502 7,200 3,854 Climbing Chicago Center
Wed 11:59:00 42.3690 -87.6770 14° North  Level FlightAware Approximate
Wed 11:59:07 42.0819 -87.5808 355° North 295 546 11,900  Level Chicago Center
Wed 12:00:09 42.1625 -87.5861 357° North 294 544 15,000 2,049 Climbing Chicago Center
Wed 12:01:10 42.2483 -87.5928 357° North 308 570 16,100 2,585 Climbing Chicago Center
Wed 12:02:12 42.3628 -87.6011 357° North 343 636 20,300 3,242 Climbing Chicago Center
Wed 12:03:14 42.4658 -87.6075 357° North 368 681 22,800 2,293 Climbing Chicago Center
Wed 12:04:15 42.5806 -87.6158 357° North 410 760 25,000 2,439 Climbing Chicago Center
Wed 12:05:17 42.7036 -87.5722 15° North 459 850 27,800 1,935 Climbing Chicago Center
Wed 12:06:19 42.8181 -87.4797 31° Northeast 476 882 29,000 1,317 Climbing Chicago Center
Wed 12:07:20 42.9228 -87.3708 37° Northeast 483 895 30,500 1,805 Climbing Chicago Center
Wed 12:08:22 42.9481 -87.2003 78° East 491 909 32,700 1,220 Climbing Chicago Center
Wed 12:09:23 42.9681 -86.9767 83° East 495 917 33,000 829 Climbing Chicago Center
Wed 12:10:25 42.9847 -86.7886 83° East 499 924 34,400 2,000 Climbing Chicago Center
Wed 12:11:26 43.0003 -86.6072 83° East 488 904 37,100 1,854 Climbing Chicago Center
Wed 12:12:28 43.0144 -86.4303 84° East 473 875 38,200 1,161 Climbing Chicago Center
Wed 12:13:30 43.0294 -86.2472 84° East 482 893 39,500 1,366 Climbing Chicago Center
Wed 12:14:31 43.0442 -86.0561 84° East 486 900 41,000 732 Climbing Chicago Center
Wed 12:15:33 43.0583 -85.8758 84° East 480 888 41,000  Level Chicago Center
Wed 12:16:34 43.0725 -85.6808 84° East 486 900 41,000  Level Chicago Center
Wed 12:17:36 43.0856 -85.5028 84° East 477 884 41,000  Level Chicago Center
Wed 12:18:37 43.0997 -85.3217 84° East 478 885 41,000  Level Chicago Center
Wed 12:19:39 43.1131 -85.1408 84° East 479 887 41,000  Level Chicago Center
Wed 12:20:40 43.1253 -84.9578 85° East 483 895 41,000  Level Chicago Center
Wed 12:21:09 43.1319 -84.8394 86° East 480 888 41,000  Level Cleveland Center
Wed 12:22:09 43.1636 -84.6567 77° East 480 888 41,000  Level Cleveland Center
Wed 12:23:09 43.1992 -84.4767 75° East 480 888 41,000  Level Cleveland Center
Wed 12:24:09 43.2383 -84.2939 74° East 490 908 41,000  Level Cleveland Center
Wed 12:25:09 43.2794 -84.1167 72° East 490 908 41,000  Level Cleveland Center
Wed 12:26:09 43.3178 -83.9503 72° East 490 908 41,000  Level Cleveland Center
Wed 12:27:09 43.3539 -83.7753 74° East 490 908 41,000  Level Cleveland Center
Wed 12:28:09 43.3942 -83.5944 73° East 490 908 41,000  Level Cleveland Center
Wed 12:29:09 43.4364 -83.4136 72° East 490 908 41,000  Level Cleveland Center
Wed 12:30:09 43.4697 -83.2292 76° East 490 908 41,000  Level Cleveland Center
Wed 12:31:09 43.4819 -83.0522 85° East 484 896 41,000  Level Cleveland Center
Wed 12:32:09 43.4922 -82.8608 86° East 484 896 41,000  Level Cleveland Center
Wed 12:33:09 43.5019 -82.6839 86° East 479 887 41,000  Level Cleveland Center
Wed 12:33:31 43.5000 -82.5667 91° East 490 908 41,000  Level Toronto Center
Wed 12:34:09 43.5008 -82.4950 89° East 479 887 41,000  Level Cleveland Center
Wed 12:35:09 43.4914 -82.3086 94° East 479 887 41,000  Level Cleveland Center
Wed 12:36:09 43.4794 -82.1194 95° East 485 898 41,000  Level Cleveland Center
Wed 12:36:31 43.4500 -82.0167 112° Southeast 500 925 41,000  Level Toronto Center
Wed 12:37:31 43.4667 -81.8333 83° East 500 925 41,000  Level Toronto Center
Wed 12:38:31 43.4500 -81.6333 96° East 500 925 41,000  Level Toronto Center
Wed 12:39:31 43.4333 -81.4500 97° East 500 925 41,000  Level Toronto Center
Wed 12:40:31 43.4167 -81.2667 97° East 500 925 41,000  Level Toronto Center
Wed 12:41:31 43.4000 -81.0833 97° East 500 925 41,000  Level Toronto Center
Wed 12:42:31 43.3833 -80.8667 96° East 500 925 41,000  Level Toronto Center
Wed 12:43:31 43.4000 -80.6833 83° East 500 925 41,000  Level Toronto Center
Wed 12:44:31 43.3833 -80.5000 97° East 500 925 41,000  Level Toronto Center
Wed 12:45:31 43.3667 -80.3167 97° East 500 925 41,000  Level Toronto Center
Wed 12:46:31 43.3500 -80.1167 96° East 500 925 41,000  Level Toronto Center
Wed 12:47:31 43.3333 -79.9333 97° East 500 925 41,000  Level Toronto Center
Wed 12:48:31 43.3333 -79.7167 90° East 500 925 41,000  Level Toronto Center
Wed 12:49:31 43.3167 -79.5333 97° East 500 925 41,000  Level Toronto Center
Wed 12:50:31 43.3000 -79.3500 97° East 500 925 41,000  Level Toronto Center
Wed 12:51:31 43.2833 -79.1833 98° East 500 925 41,000  Level Toronto Center
Wed 12:52:31 43.2667 -78.9667 96° East 500 925 41,000  Level Toronto Center
Wed 12:53:31 43.2500 -78.7833 97° East 510 945 41,000  Level Toronto Center
Wed 12:54:31 43.2500 -78.6000 90° East 510 945 41,000  Level Toronto Center
Wed 12:55:31 43.2167 -78.4000 103° East 510 945 41,000  Level Toronto Center
Wed 12:56:33 43.2181 -78.2414 89° East 500 925 41,000  Level Cleveland Center
Wed 12:57:33 43.1994 -78.0514 98° East 500 925 41,000  Level Cleveland Center
Wed 12:58:33 43.1828 -77.8614 97° East 500 925 41,000 -100 Level Cleveland Center
Wed 12:59:33 43.1678 -77.6769 96° East 500 925 40,800 -600 Descending Cleveland Center
Wed 13:00:33 43.1503 -77.4869 97° East 500 925 39,800 -639 Descending Cleveland Center
Wed 13:02:22 43.1158 -77.1511 98° East 503 932 39,000 -270 Descending Boston Center
Wed 13:03:31 43.0833 -76.9000 100° East 490 908 39,000  Level Toronto Center
Wed 13:04:31 43.0667 -76.6833 96° East 490 908 39,000  Level Toronto Center
Wed 13:05:31 43.0500 -76.5333 99° East 490 908 39,000  Level Toronto Center
Wed 13:06:31 43.0333 -76.3333 96° East 480 888 39,000  Level Toronto Center
Wed 13:07:23 43.0256 -76.2150 95° East 486 900 39,000  Level Boston Center
Wed 13:08:23 43.0064 -76.0378 98° East 481 892 39,000  Level Boston Center
Wed 13:09:24 42.9869 -75.8550 98° East 481 892 39,000  Level Boston Center
Wed 13:10:22 42.9672 -75.6750 98° East 486 900 39,000 -200 Level Boston Center
Wed 13:11:24 42.9450 -75.4978 100° East 486 900 38,600 -700 Descending Boston Center
Wed 13:12:22 42.9264 -75.3297 99° East 486 900 37,600 -966 Descending Boston Center
Wed 13:13:22 42.9081 -75.1417 98° East 486 900 36,700 -893 Descending Boston Center
Wed 13:14:23 42.8872 -74.9594 99° East 486 900 35,800 -843 Descending Boston Center
Wed 13:15:23 42.8642 -74.7769 100° East 486 900 35,000 -397 Descending Boston Center
Wed 13:16:24 42.8447 -74.5922 98° East 491 909 35,000 -298 Level Boston Center
Wed 13:17:24 42.8208 -74.4158 100° East 479 887 34,400 -915 Descending Boston Center
Wed 13:18:22 42.8197 -74.2375 90° East 474 877 33,200 -1,983 Descending Boston Center
Wed 13:19:22 42.8183 -74.0592 91° East 469 869 30,500 -2,459 Descending Boston Center
Wed 13:20:24 42.8186 -73.8836 90° East 469 869 28,200 -2,200 Descending Boston Center
Wed 13:21:22 42.8183 -73.7111 90° East 457 847 26,100 -2,017 Descending Boston Center
Wed 13:22:23 42.8161 -73.5411 91° East 452 837 24,200 -1,426 Descending Boston Center
Wed 13:23:24 42.8156 -73.3797 90° East 444 822 23,200 -1,008 Descending Boston Center
Wed 13:24:22 42.8125 -73.2156 91° East 432 800 22,200 -1,008 Descending Boston Center
Wed 13:25:23 42.8094 -73.0542 91° East 426 789 21,200 -1,041 Descending Boston Center
Wed 13:26:23 42.8061 -72.8731 91° East 428 793 20,100 -1,100 Descending Boston Center
Wed 13:27:23 42.8064 -72.7344 90° East 409 758 19,000 -1,488 Descending Boston Center
Wed 13:28:24 42.8025 -72.5817 92° East 397 735 17,100 -1,934 Descending Boston Center
Wed 13:29:24 42.7983 -72.4344 92° East 392 726 15,100 -1,966 Descending Boston Center
Wed 13:30:23 42.7964 -72.2872 91° East 386 715 13,200 -1,916 Descending Boston Center
Wed 13:31:23 42.8044 -72.1431 86° East 381 705 11,300 -1,800 Descending Boston Center
Wed 13:32:23 42.8164 -71.9928 84° East 376 697 9,600 -1,438 Descending Boston Center
Wed 13:33:24 42.8264 -71.8825 83° East 342 634 8,400 -1,361 Descending Boston Center
Wed 13:34:22 42.7922 -71.7639 111° Southeast 303 562 6,900 -1,160 Descending Boston Center
Wed 13:35:23 42.7564 -71.6881 123° Southeast 274 507 6,100 -1,190 Descending Boston Center
Wed 13:36:23 42.7581 -71.6172 88° East 175 323 4,500 -1,339 Descending Boston Center
Wed 13:37:24 42.8058 -71.5967 18° North 147 272 3,400 -1,109 Descending Boston Center
Wed 13:38:22 42.8511 -71.5453 40° Northeast 177 328 2,300 -966 Descending Boston Center
Wed 13:39:22 42.8800 -71.5081 43° Northeast 177 328 1,500 -744 Descending Boston Center
Wed 13:40:23 42.9089 -71.4733 41° Northeast 135 249 800 -595 Descending Boston Center
Wed 13:41:23 42.9339 -71.4447 40° Northeast 129 238 300 9,025 Descending Boston Center
Wed 13:42:24 42.9606 -71.4158 38° Northeast 129 238 19,000 9,429 Climbing Boston Center
Wed 13:43:22 42.9853 -71.3872 40° Northeast 129 238 19,000  Level Boston Center
Wed 13:44:22 43.0122 -71.3583 38° Northeast 129 238 19,000  Level Boston Center
Wed 13:46:00 42.9328 -71.4358 316° Northwest  Level Estimated
Wed 13:53:00 42.9328 -71.4358 316° Northwest  Level Estimated
Wed 13:54:00 42.9328 -71.4358 316° Northwest  Level Estimated
Wed 13:55:00 42.9328 -71.4358 316° Northwest  Level Estimated
Wed 13:56:00 42.9328 -71.4358 316° Northwest  Level Estimated
Wed 13:57:00 42.9328 -71.4358 316° Northwest  Level Estimated
Wed 13:58:00 42.9328 -71.4358 316° Northwest  Level Estimated
Wed 13:59:00 42.9328 -71.4358 316° Northwest  Level Estimated

Login

Don't have an account? Register now (free) for customized features, flight alerts, and more!